sensor_id;sensor_type;location;lat;lon;timestamp;temperature;humidity
27128;DHT22;14660;49.008;8.390;2023-02-28T00:00:50;1.30;99.90
27128;DHT22;14660;49.008;8.390;2023-02-28T00:03:17;1.40;99.90
27128;DHT22;14660;49.008;8.390;2023-02-28T00:05:45;1.20;99.90
27128;DHT22;14660;49.008;8.390;2023-02-28T00:08:12;1.40;99.90
27128;DHT22;14660;49.008;8.390;2023-02-28T00:10:39;1.50;99.90
27128;DHT22;14660;49.008;8.390;2023-02-28T00:13:07;1.60;99.90
27128;DHT22;14660;49.008;8.390;2023-02-28T00:15:34;1.70;99.90
27128;DHT22;14660;49.008;8.390;2023-02-28T00:18:02;1.70;99.90
27128;DHT22;14660;49.008;8.390;2023-02-28T00:20:32;1.40;99.90
27128;DHT22;14660;49.008;8.390;2023-02-28T00:22:59;1.30;99.90
27128;DHT22;14660;49.008;8.390;2023-02-28T00:25:26;1.40;99.90
27128;DHT22;14660;49.008;8.390;2023-02-28T00:27:53;1.50;99.90
27128;DHT22;14660;49.008;8.390;2023-02-28T00:30:22;1.50;99.90
27128;DHT22;14660;49.008;8.390;2023-02-28T00:32:50;1.40;99.90
27128;DHT22;14660;49.008;8.390;2023-02-28T00:35:18;1.40;99.90
27128;DHT22;14660;49.008;8.390;2023-02-28T00:37:45;1.30;99.90
27128;DHT22;14660;49.008;8.390;2023-02-28T00:40:12;1.40;99.90
27128;DHT22;14660;49.008;8.390;2023-02-28T00:42:39;1.30;99.90
27128;DHT22;14660;49.008;8.390;2023-02-28T00:45:07;1.20;99.90
27128;DHT22;14660;49.008;8.390;2023-02-28T00:47:35;1.30;99.90
27128;DHT22;14660;49.008;8.390;2023-02-28T00:50:02;1.50;99.90
27128;DHT22;14660;49.008;8.390;2023-02-28T00:52:30;1.40;99.90
27128;DHT22;14660;49.008;8.390;2023-02-28T00:54:56;1.30;99.90
27128;DHT22;14660;49.008;8.390;2023-02-28T00:57:23;1.30;99.90
27128;DHT22;14660;49.008;8.390;2023-02-28T00:59:50;1.40;99.90
27128;DHT22;14660;49.008;8.390;2023-02-28T01:02:17;1.30;99.90
27128;DHT22;14660;49.008;8.390;2023-02-28T01:04:44;1.30;99.90
27128;DHT22;14660;49.008;8.390;2023-02-28T01:07:11;1.40;99.90
27128;DHT22;14660;49.008;8.390;2023-02-28T01:09:38;1.40;99.90
27128;DHT22;14660;49.008;8.390;2023-02-28T01:12:08;1.40;99.90
27128;DHT22;14660;49.008;8.390;2023-02-28T01:14:35;1.20;99.90
27128;DHT22;14660;49.008;8.390;2023-02-28T01:17:03;1.10;99.90
27128;DHT22;14660;49.008;8.390;2023-02-28T01:19:30;1.00;99.90
27128;DHT22;14660;49.008;8.390;2023-02-28T01:21:56;1.20;99.90
27128;DHT22;14660;49.008;8.390;2023-02-28T01:24:22;1.30;99.90
27128;DHT22;14660;49.008;8.390;2023-02-28T01:26:48;1.20;99.90
27128;DHT22;14660;49.008;8.390;2023-02-28T01:29:15;1.10;99.90
27128;DHT22;14660;49.008;8.390;2023-02-28T01:31:42;1.00;99.90
27128;DHT22;14660;49.008;8.390;2023-02-28T01:34:08;1.00;99.90
27128;DHT22;14660;49.008;8.390;2023-02-28T01:36:35;1.20;99.90
27128;DHT22;14660;49.008;8.390;2023-02-28T01:39:03;1.10;99.90
27128;DHT22;14660;49.008;8.390;2023-02-28T01:41:32;1.20;99.90
27128;DHT22;14660;49.008;8.390;2023-02-28T01:44:54;1.00;99.90
27128;DHT22;14660;49.008;8.390;2023-02-28T01:46:55;1.10;99.90
27128;DHT22;14660;49.008;8.390;2023-02-28T01:49:21;0.90;99.90
27128;DHT22;14660;49.008;8.390;2023-02-28T01:51:50;1.20;99.90
27128;DHT22;14660;49.008;8.390;2023-02-28T01:54:22;1.10;99.90
27128;DHT22;14660;49.008;8.390;2023-02-28T01:56:57;1.30;99.90
27128;DHT22;14660;49.008;8.390;2023-02-28T01:59:35;1.40;99.90
27128;DHT22;14660;49.008;8.390;2023-02-28T02:02:02;1.20;99.90
27128;DHT22;14660;49.008;8.390;2023-02-28T02:04:35;1.10;99.90
27128;DHT22;14660;49.008;8.390;2023-02-28T02:07:04;1.00;99.90
27128;DHT22;14660;49.008;8.390;2023-02-28T02:09:30;1.00;99.90
27128;DHT22;14660;49.008;8.390;2023-02-28T02:12:02;0.90;99.90
27128;DHT22;14660;49.008;8.390;2023-02-28T02:17:45;0.90;99.90
27128;DHT22;14660;49.008;8.390;2023-02-28T02:41:51;0.80;99.90
27128;DHT22;14660;49.008;8.390;2023-02-28T02:44:40;0.80;99.90
27128;DHT22;14660;49.008;8.390;2023-02-28T02:47:12;0.90;99.90
27128;DHT22;14660;49.008;8.390;2023-02-28T02:49:44;1.10;99.90
27128;DHT22;14660;49.008;8.390;2023-02-28T02:52:14;0.90;99.90
27128;DHT22;14660;49.008;8.390;2023-02-28T02:54:45;0.70;99.90
27128;DHT22;14660;49.008;8.390;2023-02-28T02:57:30;0.60;99.90
27128;DHT22;14660;49.008;8.390;2023-02-28T03:00:00;0.80;99.90
27128;DHT22;14660;49.008;8.390;2023-02-28T03:02:29;0.70;99.90
27128;DHT22;14660;49.008;8.390;2023-02-28T03:05:02;0.60;99.90
27128;DHT22;14660;49.008;8.390;2023-02-28T03:07:31;0.70;99.90
27128;DHT22;14660;49.008;8.390;2023-02-28T03:09:58;0.70;99.90
27128;DHT22;14660;49.008;8.390;2023-02-28T03:12:39;0.70;99.90
27128;DHT22;14660;49.008;8.390;2023-02-28T03:15:30;0.90;99.90
27128;DHT22;14660;49.008;8.390;2023-02-28T03:18:10;0.80;99.90
27128;DHT22;14660;49.008;8.390;2023-02-28T03:24:09;1.10;99.90
27128;DHT22;14660;49.008;8.390;2023-02-28T03:26:43;1.00;99.90
27128;DHT22;14660;49.008;8.390;2023-02-28T03:32:43;1.00;99.90
27128;DHT22;14660;49.008;8.390;2023-02-28T03:35:26;1.10;99.90
27128;DHT22;14660;49.008;8.390;2023-02-28T03:41:06;1.00;99.90
27128;DHT22;14660;49.008;8.390;2023-02-28T03:43:40;1.00;99.90
27128;DHT22;14660;49.008;8.390;2023-02-28T03:46:10;0.90;99.90
27128;DHT22;14660;49.008;8.390;2023-02-28T03:48:49;1.10;99.90
27128;DHT22;14660;49.008;8.390;2023-02-28T03:51:20;1.10;99.90
27128;DHT22;14660;49.008;8.390;2023-02-28T03:53:57;1.10;99.90
27128;DHT22;14660;49.008;8.390;2023-02-28T03:56:34;1.20;99.90
27128;DHT22;14660;49.008;8.390;2023-02-28T03:59:09;1.10;99.90
27128;DHT22;14660;49.008;8.390;2023-02-28T04:01:47;1.10;99.90
27128;DHT22;14660;49.008;8.390;2023-02-28T04:04:17;1.10;99.90
27128;DHT22;14660;49.008;8.390;2023-02-28T04:06:44;1.00;99.90
27128;DHT22;14660;49.008;8.390;2023-02-28T04:09:12;0.80;99.90
27128;DHT22;14660;49.008;8.390;2023-02-28T04:11:53;1.10;99.90
27128;DHT22;14660;49.008;8.390;2023-02-28T04:14:22;1.00;99.90
27128;DHT22;14660;49.008;8.390;2023-02-28T04:16:49;1.10;99.90
27128;DHT22;14660;49.008;8.390;2023-02-28T04:19:17;1.10;99.90
27128;DHT22;14660;49.008;8.390;2023-02-28T04:22:01;1.20;99.90
27128;DHT22;14660;49.008;8.390;2023-02-28T04:24:28;1.10;99.90
27128;DHT22;14660;49.008;8.390;2023-02-28T04:26:57;1.00;99.90
27128;DHT22;14660;49.008;8.390;2023-02-28T04:29:43;1.20;99.90
27128;DHT22;14660;49.008;8.390;2023-02-28T04:32:11;1.10;99.90
27128;DHT22;14660;49.008;8.390;2023-02-28T04:34:38;1.00;99.90
27128;DHT22;14660;49.008;8.390;2023-02-28T04:37:05;1.00;99.90
27128;DHT22;14660;49.008;8.390;2023-02-28T04:39:35;1.20;99.90
27128;DHT22;14660;49.008;8.390;2023-02-28T04:42:03;1.10;99.90
27128;DHT22;14660;49.008;8.390;2023-02-28T04:44:30;1.00;99.90
27128;DHT22;14660;49.008;8.390;2023-02-28T04:46:57;1.20;99.90
27128;DHT22;14660;49.008;8.390;2023-02-28T04:49:25;1.40;99.90
27128;DHT22;14660;49.008;8.390;2023-02-28T04:51:52;1.20;99.90
27128;DHT22;14660;49.008;8.390;2023-02-28T04:54:19;1.10;99.90
27128;DHT22;14660;49.008;8.390;2023-02-28T04:56:47;1.10;99.90
27128;DHT22;14660;49.008;8.390;2023-02-28T04:59:17;1.00;99.90
27128;DHT22;14660;49.008;8.390;2023-02-28T05:01:46;0.90;99.90
27128;DHT22;14660;49.008;8.390;2023-02-28T05:04:12;1.00;99.90
27128;DHT22;14660;49.008;8.390;2023-02-28T05:06:39;1.10;99.90
27128;DHT22;14660;49.008;8.390;2023-02-28T05:09:06;1.10;99.90
27128;DHT22;14660;49.008;8.390;2023-02-28T05:11:34;1.00;99.90
27128;DHT22;14660;49.008;8.390;2023-02-28T05:14:07;1.00;99.90
27128;DHT22;14660;49.008;8.390;2023-02-28T05:16:35;1.00;99.90
27128;DHT22;14660;49.008;8.390;2023-02-28T05:19:03;1.10;99.90
27128;DHT22;14660;49.008;8.390;2023-02-28T05:24:20;1.00;99.90
27128;DHT22;14660;49.008;8.390;2023-02-28T05:26:51;0.90;99.90
27128;DHT22;14660;49.008;8.390;2023-02-28T05:29:18;0.90;99.90
27128;DHT22;14660;49.008;8.390;2023-02-28T05:31:45;1.00;99.90
27128;DHT22;14660;49.008;8.390;2023-02-28T05:34:13;0.90;99.90
27128;DHT22;14660;49.008;8.390;2023-02-28T05:36:44;0.90;99.90
27128;DHT22;14660;49.008;8.390;2023-02-28T05:39:10;1.00;99.90
27128;DHT22;14660;49.008;8.390;2023-02-28T05:41:40;1.20;99.90
27128;DHT22;14660;49.008;8.390;2023-02-28T05:44:09;1.20;99.90
27128;DHT22;14660;49.008;8.390;2023-02-28T05:46:36;0.90;99.90
27128;DHT22;14660;49.008;8.390;2023-02-28T05:49:02;0.90;99.90
27128;DHT22;14660;49.008;8.390;2023-02-28T05:51:29;0.90;99.90
27128;DHT22;14660;49.008;8.390;2023-02-28T05:53:59;0.90;99.90
27128;DHT22;14660;49.008;8.390;2023-02-28T05:56:26;1.10;99.90
27128;DHT22;14660;49.008;8.390;2023-02-28T05:58:53;1.20;99.90
27128;DHT22;14660;49.008;8.390;2023-02-28T06:01:22;1.10;99.90
27128;DHT22;14660;49.008;8.390;2023-02-28T06:03:49;1.20;99.90
27128;DHT22;14660;49.008;8.390;2023-02-28T06:06:16;1.20;99.90
27128;DHT22;14660;49.008;8.390;2023-02-28T06:08:43;1.10;99.90
27128;DHT22;14660;49.008;8.390;2023-02-28T06:11:11;1.20;99.90
27128;DHT22;14660;49.008;8.390;2023-02-28T06:13:38;1.20;99.90
27128;DHT22;14660;49.008;8.390;2023-02-28T06:16:05;1.20;99.90
27128;DHT22;14660;49.008;8.390;2023-02-28T06:18:33;1.30;99.90
27128;DHT22;14660;49.008;8.390;2023-02-28T06:21:00;1.20;99.90
27128;DHT22;14660;49.008;8.390;2023-02-28T06:23:27;1.20;99.90
27128;DHT22;14660;49.008;8.390;2023-02-28T06:25:54;1.20;99.90
27128;DHT22;14660;49.008;8.390;2023-02-28T06:28:27;1.20;99.90
27128;DHT22;14660;49.008;8.390;2023-02-28T06:30:55;1.50;99.90
27128;DHT22;14660;49.008;8.390;2023-02-28T06:33:22;1.30;99.90
27128;DHT22;14660;49.008;8.390;2023-02-28T06:35:52;1.50;99.90
27128;DHT22;14660;49.008;8.390;2023-02-28T06:38:21;1.40;99.90
27128;DHT22;14660;49.008;8.390;2023-02-28T06:40:59;1.50;99.90
27128;DHT22;14660;49.008;8.390;2023-02-28T06:43:31;1.40;99.90
27128;DHT22;14660;49.008;8.390;2023-02-28T06:46:00;1.60;99.90
27128;DHT22;14660;49.008;8.390;2023-02-28T06:48:28;1.50;99.90
27128;DHT22;14660;49.008;8.390;2023-02-28T06:51:19;1.60;99.90
27128;DHT22;14660;49.008;8.390;2023-02-28T06:53:51;1.60;99.90
27128;DHT22;14660;49.008;8.390;2023-02-28T06:56:18;1.50;99.90
27128;DHT22;14660;49.008;8.390;2023-02-28T06:58:48;1.40;99.90
27128;DHT22;14660;49.008;8.390;2023-02-28T07:01:16;1.50;99.90
27128;DHT22;14660;49.008;8.390;2023-02-28T07:03:43;1.70;99.90
27128;DHT22;14660;49.008;8.390;2023-02-28T07:06:11;1.50;99.90
27128;DHT22;14660;49.008;8.390;2023-02-28T07:08:38;1.60;99.90
27128;DHT22;14660;49.008;8.390;2023-02-28T07:11:06;1.70;99.90
27128;DHT22;14660;49.008;8.390;2023-02-28T07:13:33;1.60;99.90
27128;DHT22;14660;49.008;8.390;2023-02-28T07:16:02;1.70;99.90
27128;DHT22;14660;49.008;8.390;2023-02-28T07:18:30;1.60;99.90
27128;DHT22;14660;49.008;8.390;2023-02-28T07:21:01;1.70;99.90
27128;DHT22;14660;49.008;8.390;2023-02-28T07:23:28;1.60;99.90
27128;DHT22;14660;49.008;8.390;2023-02-28T07:25:55;1.70;99.90
27128;DHT22;14660;49.008;8.390;2023-02-28T07:28:22;1.70;99.90
27128;DHT22;14660;49.008;8.390;2023-02-28T07:30:50;1.80;99.90
27128;DHT22;14660;49.008;8.390;2023-02-28T07:33:17;1.70;99.90
27128;DHT22;14660;49.008;8.390;2023-02-28T07:35:44;1.60;99.90
27128;DHT22;14660;49.008;8.390;2023-02-28T07:38:11;1.50;99.90
27128;DHT22;14660;49.008;8.390;2023-02-28T07:40:40;1.50;99.90
27128;DHT22;14660;49.008;8.390;2023-02-28T07:43:07;1.60;99.90
27128;DHT22;14660;49.008;8.390;2023-02-28T07:45:34;1.60;99.90
27128;DHT22;14660;49.008;8.390;2023-02-28T07:48:00;1.60;99.90
27128;DHT22;14660;49.008;8.390;2023-02-28T07:50:27;1.70;99.90
27128;DHT22;14660;49.008;8.390;2023-02-28T07:53:01;1.60;99.90
27128;DHT22;14660;49.008;8.390;2023-02-28T07:55:27;1.70;99.90
27128;DHT22;14660;49.008;8.390;2023-02-28T07:57:54;1.80;99.90
27128;DHT22;14660;49.008;8.390;2023-02-28T08:00:24;1.80;99.90
27128;DHT22;14660;49.008;8.390;2023-02-28T08:02:50;1.90;99.90
27128;DHT22;14660;49.008;8.390;2023-02-28T08:05:17;1.80;99.90
27128;DHT22;14660;49.008;8.390;2023-02-28T08:07:44;1.70;99.90
27128;DHT22;14660;49.008;8.390;2023-02-28T08:10:12;1.80;99.90
27128;DHT22;14660;49.008;8.390;2023-02-28T08:12:39;1.90;99.90
27128;DHT22;14660;49.008;8.390;2023-02-28T08:15:07;1.90;99.90
27128;DHT22;14660;49.008;8.390;2023-02-28T08:17:34;1.90;99.90
27128;DHT22;14660;49.008;8.390;2023-02-28T08:20:01;1.80;99.90
27128;DHT22;14660;49.008;8.390;2023-02-28T08:22:28;1.90;99.90
27128;DHT22;14660;49.008;8.390;2023-02-28T08:24:55;1.80;99.90
27128;DHT22;14660;49.008;8.390;2023-02-28T08:27:22;2.10;99.90
27128;DHT22;14660;49.008;8.390;2023-02-28T08:29:48;2.10;99.90
27128;DHT22;14660;49.008;8.390;2023-02-28T08:32:15;2.20;99.90
27128;DHT22;14660;49.008;8.390;2023-02-28T08:34:42;2.20;99.90
27128;DHT22;14660;49.008;8.390;2023-02-28T08:37:09;2.20;99.90
27128;DHT22;14660;49.008;8.390;2023-02-28T08:39:36;2.20;99.90
27128;DHT22;14660;49.008;8.390;2023-02-28T08:42:05;2.20;99.90
27128;DHT22;14660;49.008;8.390;2023-02-28T08:44:31;2.10;99.90
27128;DHT22;14660;49.008;8.390;2023-02-28T08:46:58;2.10;99.90
27128;DHT22;14660;49.008;8.390;2023-02-28T08:49:25;2.10;99.90
27128;DHT22;14660;49.008;8.390;2023-02-28T08:51:52;2.10;99.90
27128;DHT22;14660;49.008;8.390;2023-02-28T08:54:19;2.20;99.90
27128;DHT22;14660;49.008;8.390;2023-02-28T08:56:49;2.20;99.90
27128;DHT22;14660;49.008;8.390;2023-02-28T08:59:16;2.30;99.90
27128;DHT22;14660;49.008;8.390;2023-02-28T09:01:42;2.50;99.90
27128;DHT22;14660;49.008;8.390;2023-02-28T09:04:10;2.60;99.90
27128;DHT22;14660;49.008;8.390;2023-02-28T09:06:38;2.50;99.90
27128;DHT22;14660;49.008;8.390;2023-02-28T09:09:05;2.50;99.90
27128;DHT22;14660;49.008;8.390;2023-02-28T09:11:34;2.60;99.90
27128;DHT22;14660;49.008;8.390;2023-02-28T09:14:01;2.70;99.90
27128;DHT22;14660;49.008;8.390;2023-02-28T09:16:31;2.80;99.90
27128;DHT22;14660;49.008;8.390;2023-02-28T09:18:57;2.70;99.90
27128;DHT22;14660;49.008;8.390;2023-02-28T09:21:24;2.60;99.90
27128;DHT22;14660;49.008;8.390;2023-02-28T09:23:51;2.70;99.90
27128;DHT22;14660;49.008;8.390;2023-02-28T09:26:25;3.00;99.90
27128;DHT22;14660;49.008;8.390;2023-02-28T09:28:54;3.10;99.90
27128;DHT22;14660;49.008;8.390;2023-02-28T09:31:23;3.10;99.90
27128;DHT22;14660;49.008;8.390;2023-02-28T09:33:52;3.00;99.90
27128;DHT22;14660;49.008;8.390;2023-02-28T09:36:20;3.10;99.90
27128;DHT22;14660;49.008;8.390;2023-02-28T09:38:47;3.10;99.90
27128;DHT22;14660;49.008;8.390;2023-02-28T09:41:19;3.20;99.90
27128;DHT22;14660;49.008;8.390;2023-02-28T09:44:00;3.30;99.90
27128;DHT22;14660;49.008;8.390;2023-02-28T09:46:48;3.20;99.90
27128;DHT22;14660;49.008;8.390;2023-02-28T09:49:24;3.40;99.90
27128;DHT22;14660;49.008;8.390;2023-02-28T09:52:17;3.40;99.90
27128;DHT22;14660;49.008;8.390;2023-02-28T09:54:45;3.40;99.90
27128;DHT22;14660;49.008;8.390;2023-02-28T09:57:37;3.30;99.90
27128;DHT22;14660;49.008;8.390;2023-02-28T10:00:48;3.30;99.90
27128;DHT22;14660;49.008;8.390;2023-02-28T10:06:30;3.40;99.90
27128;DHT22;14660;49.008;8.390;2023-02-28T10:12:05;3.50;99.90
27128;DHT22;14660;49.008;8.390;2023-02-28T10:14:33;3.60;99.90
27128;DHT22;14660;49.008;8.390;2023-02-28T10:17:22;3.60;99.90
27128;DHT22;14660;49.008;8.390;2023-02-28T10:20:12;3.60;99.90
27128;DHT22;14660;49.008;8.390;2023-02-28T10:23:02;3.60;99.90
27128;DHT22;14660;49.008;8.390;2023-02-28T10:25:36;3.60;99.90
27128;DHT22;14660;49.008;8.390;2023-02-28T10:28:13;3.70;99.90
27128;DHT22;14660;49.008;8.390;2023-02-28T10:30:42;3.70;99.90
27128;DHT22;14660;49.008;8.390;2023-02-28T10:33:34;3.70;99.90
27128;DHT22;14660;49.008;8.390;2023-02-28T10:36:03;3.80;99.90
27128;DHT22;14660;49.008;8.390;2023-02-28T10:38:51;3.60;99.90
27128;DHT22;14660;49.008;8.390;2023-02-28T10:41:30;3.60;99.90
27128;DHT22;14660;49.008;8.390;2023-02-28T10:44:33;3.70;99.90
27128;DHT22;14660;49.008;8.390;2023-02-28T10:47:00;3.70;99.90
27128;DHT22;14660;49.008;8.390;2023-02-28T10:49:27;3.90;99.90
27128;DHT22;14660;49.008;8.390;2023-02-28T10:51:58;3.90;99.90
27128;DHT22;14660;49.008;8.390;2023-02-28T10:54:32;3.90;99.90
27128;DHT22;14660;49.008;8.390;2023-02-28T11:00:24;3.80;99.90
27128;DHT22;14660;49.008;8.390;2023-02-28T11:02:52;3.80;99.90
27128;DHT22;14660;49.008;8.390;2023-02-28T11:05:36;3.80;99.90
27128;DHT22;14660;49.008;8.390;2023-02-28T11:08:21;3.80;99.90
27128;DHT22;14660;49.008;8.390;2023-02-28T11:10:55;3.90;99.90
27128;DHT22;14660;49.008;8.390;2023-02-28T11:13:28;4.00;99.90
27128;DHT22;14660;49.008;8.390;2023-02-28T11:15:57;4.10;99.90
27128;DHT22;14660;49.008;8.390;2023-02-28T11:18:50;4.00;99.90
27128;DHT22;14660;49.008;8.390;2023-02-28T11:21:24;4.10;99.90
27128;DHT22;14660;49.008;8.390;2023-02-28T11:23:59;4.10;99.90
27128;DHT22;14660;49.008;8.390;2023-02-28T11:26:43;4.20;99.90
27128;DHT22;14660;49.008;8.390;2023-02-28T11:31:42;4.30;99.90
27128;DHT22;14660;49.008;8.390;2023-02-28T11:34:26;4.40;99.90
27128;DHT22;14660;49.008;8.390;2023-02-28T11:36:56;4.30;99.90
27128;DHT22;14660;49.008;8.390;2023-02-28T11:39:24;4.30;99.90
27128;DHT22;14660;49.008;8.390;2023-02-28T11:51:52;4.40;99.90
27128;DHT22;14660;49.008;8.390;2023-02-28T12:25:33;5.10;99.90
27128;DHT22;14660;49.008;8.390;2023-02-28T12:28:10;5.30;99.90
27128;DHT22;14660;49.008;8.390;2023-02-28T12:30:56;5.30;99.90
27128;DHT22;14660;49.008;8.390;2023-02-28T12:33:28;5.50;99.90
27128;DHT22;14660;49.008;8.390;2023-02-28T12:36:03;5.50;99.90
27128;DHT22;14660;49.008;8.390;2023-02-28T12:41:51;5.50;99.90
27128;DHT22;14660;49.008;8.390;2023-02-28T12:47:21;5.80;99.90
27128;DHT22;14660;49.008;8.390;2023-02-28T12:50:07;5.80;99.90
27128;DHT22;14660;49.008;8.390;2023-02-28T12:58:58;5.80;99.90
27128;DHT22;14660;49.008;8.390;2023-02-28T13:08:03;5.70;99.90
27128;DHT22;14660;49.008;8.390;2023-02-28T13:10:51;5.70;99.90
27128;DHT22;14660;49.008;8.390;2023-02-28T13:13:27;5.60;99.90
27128;DHT22;14660;49.008;8.390;2023-02-28T13:16:13;5.70;99.90
27128;DHT22;14660;49.008;8.390;2023-02-28T13:19:08;5.80;99.90
27128;DHT22;14660;49.008;8.390;2023-02-28T13:21:42;5.80;99.90
27128;DHT22;14660;49.008;8.390;2023-02-28T13:24:11;5.90;99.90
27128;DHT22;14660;49.008;8.390;2023-02-28T13:29:53;6.00;99.90
27128;DHT22;14660;49.008;8.390;2023-02-28T13:32:38;5.90;99.90
27128;DHT22;14660;49.008;8.390;2023-02-28T13:35:36;5.90;99.90
27128;DHT22;14660;49.008;8.390;2023-02-28T13:38:23;5.80;99.90
27128;DHT22;14660;49.008;8.390;2023-02-28T13:40:50;5.80;99.90
27128;DHT22;14660;49.008;8.390;2023-02-28T13:43:19;5.80;99.90
27128;DHT22;14660;49.008;8.390;2023-02-28T13:46:08;5.80;99.90
27128;DHT22;14660;49.008;8.390;2023-02-28T13:48:35;5.70;99.90
27128;DHT22;14660;49.008;8.390;2023-02-28T13:51:27;5.90;99.90
27128;DHT22;14660;49.008;8.390;2023-02-28T13:54:01;6.00;99.90
27128;DHT22;14660;49.008;8.390;2023-02-28T13:56:50;6.00;99.90
27128;DHT22;14660;49.008;8.390;2023-02-28T14:05:27;5.80;99.90
27128;DHT22;14660;49.008;8.390;2023-02-28T14:07:59;6.00;99.90
27128;DHT22;14660;49.008;8.390;2023-02-28T14:10:45;6.00;99.90
27128;DHT22;14660;49.008;8.390;2023-02-28T14:13:42;6.00;99.90
27128;DHT22;14660;49.008;8.390;2023-02-28T14:16:20;6.10;99.90
27128;DHT22;14660;49.008;8.390;2023-02-28T14:19:14;5.90;99.90
27128;DHT22;14660;49.008;8.390;2023-02-28T14:25:08;5.80;99.90
27128;DHT22;14660;49.008;8.390;2023-02-28T14:34:20;5.80;99.90
27128;DHT22;14660;49.008;8.390;2023-02-28T14:36:54;5.90;99.90
27128;DHT22;14660;49.008;8.390;2023-02-28T14:39:26;6.00;99.90
27128;DHT22;14660;49.008;8.390;2023-02-28T14:41:55;6.00;99.90
27128;DHT22;14660;49.008;8.390;2023-02-28T14:44:27;6.00;99.90
27128;DHT22;14660;49.008;8.390;2023-02-28T14:46:59;6.10;99.90
27128;DHT22;14660;49.008;8.390;2023-02-28T14:49:52;6.00;99.90
27128;DHT22;14660;49.008;8.390;2023-02-28T14:52:37;6.00;99.90
27128;DHT22;14660;49.008;8.390;2023-02-28T14:55:13;5.90;99.90
27128;DHT22;14660;49.008;8.390;2023-02-28T14:58:00;5.80;99.90
27128;DHT22;14660;49.008;8.390;2023-02-28T15:00:52;5.90;99.90
27128;DHT22;14660;49.008;8.390;2023-02-28T15:03:39;5.90;99.90
27128;DHT22;14660;49.008;8.390;2023-02-28T15:06:24;6.00;99.90
27128;DHT22;14660;49.008;8.390;2023-02-28T15:09:17;6.00;99.90
27128;DHT22;14660;49.008;8.390;2023-02-28T15:11:49;6.00;99.90
27128;DHT22;14660;49.008;8.390;2023-02-28T15:14:19;6.00;99.90
27128;DHT22;14660;49.008;8.390;2023-02-28T15:16:51;6.00;99.90
27128;DHT22;14660;49.008;8.390;2023-02-28T15:19:39;6.00;99.90
27128;DHT22;14660;49.008;8.390;2023-02-28T15:22:17;5.90;99.90
27128;DHT22;14660;49.008;8.390;2023-02-28T15:24:49;6.10;99.90
27128;DHT22;14660;49.008;8.390;2023-02-28T15:27:38;6.00;99.90
27128;DHT22;14660;49.008;8.390;2023-02-28T15:30:11;5.90;99.90
27128;DHT22;14660;49.008;8.390;2023-02-28T15:32:41;6.00;99.90
27128;DHT22;14660;49.008;8.390;2023-02-28T15:38:27;5.90;99.90
27128;DHT22;14660;49.008;8.390;2023-02-28T15:40:55;5.90;99.90
27128;DHT22;14660;49.008;8.390;2023-02-28T15:46:19;5.90;99.90
27128;DHT22;14660;49.008;8.390;2023-02-28T15:48:52;5.90;99.90
27128;DHT22;14660;49.008;8.390;2023-02-28T15:54:20;5.80;99.90
27128;DHT22;14660;49.008;8.390;2023-02-28T15:56:55;5.80;99.90
27128;DHT22;14660;49.008;8.390;2023-02-28T15:59:28;5.90;99.90
27128;DHT22;14660;49.008;8.390;2023-02-28T16:02:15;5.80;99.90
27128;DHT22;14660;49.008;8.390;2023-02-28T16:05:13;5.90;99.90
27128;DHT22;14660;49.008;8.390;2023-02-28T16:07:45;5.80;99.90
27128;DHT22;14660;49.008;8.390;2023-02-28T16:10:12;5.70;99.90
27128;DHT22;14660;49.008;8.390;2023-02-28T16:12:41;5.70;99.90
27128;DHT22;14660;49.008;8.390;2023-02-28T16:15:28;5.70;99.90
27128;DHT22;14660;49.008;8.390;2023-02-28T16:17:56;5.60;99.90
27128;DHT22;14660;49.008;8.390;2023-02-28T16:20:29;5.60;99.90
27128;DHT22;14660;49.008;8.390;2023-02-28T16:22:57;5.60;99.90
27128;DHT22;14660;49.008;8.390;2023-02-28T16:25:40;5.60;99.90
27128;DHT22;14660;49.008;8.390;2023-02-28T16:28:24;5.60;99.90
27128;DHT22;14660;49.008;8.390;2023-02-28T16:30:54;5.50;99.90
27128;DHT22;14660;49.008;8.390;2023-02-28T16:33:21;5.50;99.90
27128;DHT22;14660;49.008;8.390;2023-02-28T16:35:50;5.40;99.90
27128;DHT22;14660;49.008;8.390;2023-02-28T16:38:17;5.50;99.90
27128;DHT22;14660;49.008;8.390;2023-02-28T16:40:44;5.50;99.90
27128;DHT22;14660;49.008;8.390;2023-02-28T16:43:23;5.50;99.90
27128;DHT22;14660;49.008;8.390;2023-02-28T16:46:02;5.60;99.90
27128;DHT22;14660;49.008;8.390;2023-02-28T16:48:30;5.40;99.90
27128;DHT22;14660;49.008;8.390;2023-02-28T16:50:58;5.30;99.90
27128;DHT22;14660;49.008;8.390;2023-02-28T16:53:25;5.40;99.90
27128;DHT22;14660;49.008;8.390;2023-02-28T16:55:52;5.50;99.90
27128;DHT22;14660;49.008;8.390;2023-02-28T16:58:19;5.50;99.90
27128;DHT22;14660;49.008;8.390;2023-02-28T17:00:48;5.40;99.90
27128;DHT22;14660;49.008;8.390;2023-02-28T17:03:23;5.30;99.90
27128;DHT22;14660;49.008;8.390;2023-02-28T17:05:51;5.30;99.90
27128;DHT22;14660;49.008;8.390;2023-02-28T17:08:18;5.10;99.90
27128;DHT22;14660;49.008;8.390;2023-02-28T17:10:45;5.10;99.90
27128;DHT22;14660;49.008;8.390;2023-02-28T17:13:12;5.10;99.90
27128;DHT22;14660;49.008;8.390;2023-02-28T17:15:40;5.00;99.90
27128;DHT22;14660;49.008;8.390;2023-02-28T17:18:06;5.00;99.90
27128;DHT22;14660;49.008;8.390;2023-02-28T17:20:37;4.90;99.90
27128;DHT22;14660;49.008;8.390;2023-02-28T17:23:04;5.00;99.90
27128;DHT22;14660;49.008;8.390;2023-02-28T17:25:31;4.80;99.90
27128;DHT22;14660;49.008;8.390;2023-02-28T17:27:57;4.90;99.90
27128;DHT22;14660;49.008;8.390;2023-02-28T17:30:26;4.70;99.90
27128;DHT22;14660;49.008;8.390;2023-02-28T17:32:55;4.80;99.90
27128;DHT22;14660;49.008;8.390;2023-02-28T17:35:22;4.70;99.90
27128;DHT22;14660;49.008;8.390;2023-02-28T17:37:49;4.70;99.90
27128;DHT22;14660;49.008;8.390;2023-02-28T17:40:18;4.60;99.90
27128;DHT22;14660;49.008;8.390;2023-02-28T17:42:45;4.50;99.90
27128;DHT22;14660;49.008;8.390;2023-02-28T17:45:15;4.60;99.90
27128;DHT22;14660;49.008;8.390;2023-02-28T17:47:45;4.50;99.90
27128;DHT22;14660;49.008;8.390;2023-02-28T17:50:17;4.60;99.90
27128;DHT22;14660;49.008;8.390;2023-02-28T17:52:49;4.60;99.90
27128;DHT22;14660;49.008;8.390;2023-02-28T17:55:17;4.60;99.90
27128;DHT22;14660;49.008;8.390;2023-02-28T17:57:46;4.40;99.90
27128;DHT22;14660;49.008;8.390;2023-02-28T18:00:15;4.50;99.90
27128;DHT22;14660;49.008;8.390;2023-02-28T18:02:44;4.50;99.90
27128;DHT22;14660;49.008;8.390;2023-02-28T18:05:11;4.50;99.90
27128;DHT22;14660;49.008;8.390;2023-02-28T18:07:39;4.50;99.90
27128;DHT22;14660;49.008;8.390;2023-02-28T18:10:12;4.40;99.90
27128;DHT22;14660;49.008;8.390;2023-02-28T18:12:42;4.30;99.90
27128;DHT22;14660;49.008;8.390;2023-02-28T18:15:09;4.50;99.90
27128;DHT22;14660;49.008;8.390;2023-02-28T18:17:36;4.40;99.90
27128;DHT22;14660;49.008;8.390;2023-02-28T18:20:03;4.20;99.90
27128;DHT22;14660;49.008;8.390;2023-02-28T18:22:32;4.30;99.90
27128;DHT22;14660;49.008;8.390;2023-02-28T18:25:00;4.20;99.90
27128;DHT22;14660;49.008;8.390;2023-02-28T18:27:29;4.30;99.90
27128;DHT22;14660;49.008;8.390;2023-02-28T18:29:57;4.20;99.90
27128;DHT22;14660;49.008;8.390;2023-02-28T18:32:23;4.20;99.90